Time;durP1;ratioP1;P1;durP2;ratioP2;P2;SDS_P1;SDS_P2;PMS_P1;PMS_P2;Temp;Humidity;BMP_temperature;BMP_pressure;BME280_temperature;BME280_humidity;BME280_pressure;Samples;Min_cycle;Max_cycle;Signal;HPM_P1;HPM_P2
2022/11/23 00:00:53;;;;;;;;;;;;;;;6.03;60.10;99831.34;5073858;28;20330;-61
2022/11/23 00:03:19;;;;;;;;;;;;;;;6.08;60.03;99846.03;5073744;28;20317;-61
2022/11/23 00:05:44;;;;;;;;;;;;;;;6.12;59.93;99847.72;5073583;28;19943;-61
2022/11/23 00:08:09;;;;;;;;;;;;;;;6.16;59.69;99841.59;5074725;28;19928;-61
2022/11/23 00:10:34;;;;;;;;;;;;;;;6.17;59.60;99845.06;5093640;28;19924;-62
2022/11/23 00:13:00;;;;;;;;;;;;;;;6.20;59.29;99849.38;5077993;28;19921;-62
2022/11/23 00:15:25;;;;;;;;;;;;;;;6.33;59.09;99857.03;5077833;28;19927;-61
2022/11/23 00:17:50;;;;;;;;;;;;;;;6.29;59.30;99849.25;5077818;28;19974;-60
2022/11/23 00:20:15;;;;;;;;;;;;;;;6.29;58.95;99854.47;5077172;28;20364;-62
2022/11/23 00:22:41;;;;;;;;;;;;;;;6.40;58.88;99852.59;5077611;28;19927;-60
2022/11/23 00:25:06;;;;;;;;;;;;;;;6.28;59.44;99851.00;5088162;28;20379;-61
2022/11/23 00:27:31;;;;;;;;;;;;;;;6.31;58.91;99847.50;5098108;28;19920;-61
2022/11/23 00:29:56;;;;;;;;;;;;;;;6.34;58.98;99840.50;5097756;28;19963;-61
2022/11/23 00:32:22;;;;;;;;;;;;;;;6.43;59.12;99841.28;5096363;28;19920;-59
2022/11/23 00:34:47;;;;;;;;;;;;;;;6.43;58.93;99842.13;5097603;28;19977;-61
2022/11/23 00:37:12;;;;;;;;;;;;;;;6.43;58.63;99844.75;5084845;28;19955;-61
2022/11/23 00:39:37;;;;;;;;;;;;;;;6.35;59.05;99841.38;5097675;28;19920;-59
2022/11/23 00:42:03;;;;;;;;;;;;;;;6.35;58.79;99838.75;5097701;28;19927;-59
2022/11/23 00:44:28;;;;;;;;;;;;;;;6.33;58.88;99838.75;5097415;28;19920;-60
2022/11/23 00:46:53;;;;;;;;;;;;;;;6.23;59.08;99834.56;5097526;28;19923;-61
2022/11/23 00:49:18;;;;;;;;;;;;;;;6.17;59.17;99845.91;5085561;28;19927;-61
2022/11/23 00:51:44;;;;;;;;;;;;;;;6.20;59.19;99854.59;5076853;28;19925;-60
2022/11/23 00:54:09;;;;;;;;;;;;;;;6.29;58.97;99857.09;5077081;28;19955;-60
2022/11/23 00:56:35;;;;;;;;;;;;;;;6.32;58.87;99857.06;5077123;28;19924;-60
2022/11/23 00:59:01;;;;;;;;;;;;;;;6.16;59.31;99854.63;5109124;28;20269;-59
2022/11/23 01:01:29;;;;;;;;;;;;;;;6.28;59.17;99853.63;5076831;28;19999;-60
2022/11/23 01:03:57;;;;;;;;;;;;;;;6.12;59.29;99854.69;5076834;28;19916;-60
2022/11/23 01:06:40;;;;;;;;;;;;;;;6.20;59.09;99850.25;5077089;28;19917;-61
2022/11/23 01:09:13;;;;;;;;;;;;;;;6.30;58.96;99859.66;5076764;28;19927;-61
2022/11/23 01:11:38;;;;;;;;;;;;;;;6.38;58.71;99859.56;5076585;28;19916;-60
2022/11/23 01:14:03;;;;;;;;;;;;;;;6.44;58.75;99858.66;5076740;28;20011;-60
2022/11/23 01:16:33;;;;;;;;;;;;;;;6.45;58.71;99853.38;5076606;28;19923;-60
2022/11/23 01:19:00;;;;;;;;;;;;;;;6.40;58.62;99852.59;5076253;28;19963;-60
2022/11/23 01:21:26;;;;;;;;;;;;;;;6.37;58.81;99852.63;5075838;28;19920;-59
2022/11/23 01:23:51;;;;;;;;;;;;;;;6.43;58.77;99854.31;5075912;28;19917;-59
2022/11/23 01:26:17;;;;;;;;;;;;;;;6.38;58.84;99856.97;5094558;28;20367;-60
2022/11/23 01:28:42;;;;;;;;;;;;;;;6.38;58.74;99862.19;5076641;28;19920;-59
2022/11/23 01:31:17;;;;;;;;;;;;;;;6.38;58.84;99856.97;5076028;28;19928;-61
2022/11/23 01:33:42;;;;;;;;;;;;;;;6.39;58.75;99854.34;5076137;28;20299;-60
2022/11/23 01:36:12;;;;;;;;;;;;;;;6.41;58.85;99862.16;5076239;28;20058;-60
2022/11/23 01:38:37;;;;;;;;;;;;;;;6.48;58.72;99871.63;5090899;28;19916;-60
2022/11/23 01:41:04;;;;;;;;;;;;;;;6.48;58.42;99861.19;5096427;28;19927;-59
2022/11/23 01:43:29;;;;;;;;;;;;;;;6.46;58.66;99862.94;5092616;28;19927;-60
2022/11/23 01:45:55;;;;;;;;;;;;;;;6.49;58.46;99868.13;5075824;28;20003;-59
2022/11/23 01:48:24;;;;;;;;;;;;;;;6.23;59.17;99860.66;5076131;28;19971;-59
2022/11/23 01:50:51;;;;;;;;;;;;;;;6.39;58.84;99856.97;5074872;28;19932;-59
2022/11/23 01:53:16;;;;;;;;;;;;;;;6.31;59.00;99864.03;5076612;28;19920;-61
2022/11/23 01:55:42;;;;;;;;;;;;;;;6.23;59.36;99859.78;5076189;28;19923;-61
2022/11/23 01:58:08;;;;;;;;;;;;;;;6.39;58.88;99856.09;5075876;28;19960;-60
2022/11/23 02:00:34;;;;;;;;;;;;;;;6.33;58.98;99857.03;5075476;28;19930;-60
2022/11/23 02:02:59;;;;;;;;;;;;;;;6.23;59.17;99847.59;5076296;28;19916;-60
2022/11/23 02:05:30;;;;;;;;;;;;;;;6.36;59.15;99848.31;5075781;28;19969;-60
2022/11/23 02:07:57;;;;;;;;;;;;;;;6.34;58.98;99844.84;5075627;28;19965;-60
2022/11/23 02:10:22;;;;;;;;;;;;;;;6.13;59.43;99844.22;5075501;28;19916;-60
2022/11/23 02:12:48;;;;;;;;;;;;;;;6.26;59.24;99849.28;5075392;28;19924;-61
2022/11/23 02:15:13;;;;;;;;;;;;;;;6.31;59.18;99842.28;5075572;28;20280;-60
2022/11/23 02:17:38;;;;;;;;;;;;;;;6.27;59.16;99841.47;5073131;28;20001;-60
2022/11/23 02:20:07;;;;;;;;;;;;;;;6.20;59.46;99844.16;5087845;28;19925;-61
2022/11/23 02:22:39;;;;;;;;;;;;;;;6.16;59.46;99849.41;5072195;28;19970;-60
2022/11/23 02:25:08;;;;;;;;;;;;;;;6.17;59.60;99845.06;5084449;28;19920;-60
2022/11/23 02:27:33;;;;;;;;;;;;;;;6.18;59.47;99846.78;5080041;28;20426;-60
2022/11/23 02:29:59;;;;;;;;;;;;;;;6.28;59.37;99840.56;5068886;28;20428;-60
2022/11/23 02:32:25;;;;;;;;;;;;;;;6.34;59.33;99842.22;5073781;28;19931;-61
2022/11/23 02:34:50;;;;;;;;;;;;;;;6.36;59.15;99841.34;5073343;28;19920;-60
2022/11/23 02:37:16;;;;;;;;;;;;;;;6.38;59.11;99839.59;5077421;28;19930;-59
2022/11/23 02:39:47;;;;;;;;;;;;;;;6.36;59.06;99835.25;5095210;28;19920;-60
2022/11/23 02:42:12;;;;;;;;;;;;;;;6.30;59.33;99848.38;5073202;28;19982;-60
2022/11/23 02:44:37;;;;;;;;;;;;;;;6.27;59.39;99845.81;5075041;28;19920;-60
2022/11/23 02:47:03;;;;;;;;;;;;;;;6.23;59.48;99844.13;5074090;28;19939;-60
2022/11/23 02:49:28;;;;;;;;;;;;;;;6.31;59.35;99837.94;5073181;28;19969;-60
2022/11/23 02:51:54;;;;;;;;;;;;;;;6.34;59.13;99837.00;5073236;28;19924;-61
2022/11/23 02:54:19;;;;;;;;;;;;;;;6.26;59.14;99833.63;5072566;28;19924;-60
2022/11/23 02:56:44;;;;;;;;;;;;;;;6.22;59.51;99830.19;5074769;28;19970;-60
2022/11/23 02:59:10;;;;;;;;;;;;;;;6.22;59.54;99827.59;5070752;28;19921;-60
2022/11/23 03:01:35;;;;;;;;;;;;;;;6.16;59.88;99838.97;5074703;28;19931;-60
2022/11/23 03:04:00;;;;;;;;;;;;;;;6.25;59.50;99837.13;5073237;28;19924;-60
2022/11/23 03:06:26;;;;;;;;;;;;;;;6.28;59.45;99837.97;5071977;28;19925;-61
2022/11/23 03:08:51;;;;;;;;;;;;;;;6.22;59.66;99839.78;5073444;28;20307;-60
2022/11/23 03:11:16;;;;;;;;;;;;;;;6.27;59.51;99843.22;5072018;28;19936;-60
2022/11/23 03:13:41;;;;;;;;;;;;;;;6.26;59.69;99828.41;5071852;28;19930;-61
2022/11/23 03:16:07;;;;;;;;;;;;;;;6.27;59.58;99835.38;5073626;28;20307;-60
2022/11/23 03:18:32;;;;;;;;;;;;;;;6.43;59.16;99836.91;5074302;28;19920;-60
2022/11/23 03:21:02;;;;;;;;;;;;;;;6.40;59.21;99839.56;5071663;28;19925;-61
2022/11/23 03:23:27;;;;;;;;;;;;;;;6.44;59.09;99843.00;5073884;28;19917;-61
2022/11/23 03:25:58;;;;;;;;;;;;;;;6.35;59.64;99839.63;5073452;28;20007;-63
2022/11/23 03:28:24;;;;;;;;;;;;;;;6.36;59.31;99835.25;5072543;28;19928;-60
2022/11/23 03:30:49;;;;;;;;;;;;;;;6.21;59.92;99825.00;5074247;28;20296;-60
2022/11/23 03:33:14;;;;;;;;;;;;;;;6.25;59.69;99830.16;5071619;28;19928;-61
2022/11/23 03:35:40;;;;;;;;;;;;;;;6.31;59.51;99830.09;5072837;28;20291;-60
2022/11/23 03:38:05;;;;;;;;;;;;;;;6.36;59.51;99830.91;5081736;28;19977;-60
2022/11/23 03:40:30;;;;;;;;;;;;;;;6.33;59.48;99832.69;5093052;28;19920;-61
2022/11/23 03:42:56;;;;;;;;;;;;;;;6.38;59.71;99829.16;5085663;28;20399;-60
2022/11/23 03:45:21;;;;;;;;;;;;;;;6.35;59.59;99839.63;5072970;28;19932;-61
2022/11/23 03:47:47;;;;;;;;;;;;;;;6.39;59.41;99830.00;5073323;28;19929;-61
2022/11/23 03:50:12;;;;;;;;;;;;;;;6.39;59.55;99830.88;5072898;28;20406;-60
2022/11/23 03:52:37;;;;;;;;;;;;;;;6.35;59.56;99839.63;5074115;28;19923;-60
2022/11/23 03:55:02;;;;;;;;;;;;;;;6.43;59.25;99834.28;5074358;28;19920;-61
2022/11/23 03:57:28;;;;;;;;;;;;;;;6.47;59.26;99840.34;5074570;28;20265;-61
2022/11/23 03:59:53;;;;;;;;;;;;;;;6.41;59.32;99836.06;5075704;28;19921;-60
2022/11/23 04:02:18;;;;;;;;;;;;;;;6.49;59.30;99841.16;5073545;28;19963;-60
2022/11/23 04:04:43;;;;;;;;;;;;;;;6.47;59.40;99837.72;5072140;28;20402;-61
2022/11/23 04:07:09;;;;;;;;;;;;;;;6.49;59.38;99844.63;5074735;28;20021;-61
2022/11/23 04:09:34;;;;;;;;;;;;;;;6.56;59.02;99843.69;5074115;28;20451;-60
2022/11/23 04:11:59;;;;;;;;;;;;;;;6.54;58.98;99842.84;5072959;28;19917;-61
2022/11/23 04:14:24;;;;;;;;;;;;;;;6.51;59.17;99842.88;5076135;28;19923;-61
2022/11/23 04:16:50;;;;;;;;;;;;;;;6.31;59.48;99842.28;5074918;28;19924;-61
2022/11/23 04:19:15;;;;;;;;;;;;;;;6.21;61.31;99838.06;5075023;28;20294;-59
2022/11/23 04:21:40;;;;;;;;;;;;;;;6.45;59.53;99839.47;5074441;28;19978;-59
2022/11/23 04:24:06;;;;;;;;;;;;;;;6.46;59.22;99841.19;5075358;28;19931;-59
2022/11/23 04:26:31;;;;;;;;;;;;;;;6.52;59.12;99847.22;5076318;28;19951;-61
2022/11/23 04:28:56;;;;;;;;;;;;;;;6.53;59.04;99843.72;5088915;28;19931;-60
2022/11/23 04:31:21;;;;;;;;;;;;;;;6.49;59.01;99847.25;5073717;28;20379;-60
2022/11/23 04:33:47;;;;;;;;;;;;;;;6.49;59.48;99841.16;5074478;28;19924;-60
2022/11/23 04:36:12;;;;;;;;;;;;;;;6.47;59.64;99848.19;5074965;28;19925;-61
2022/11/23 04:38:37;;;;;;;;;;;;;;;6.41;59.16;99846.50;5075486;28;20008;-60
2022/11/23 04:41:02;;;;;;;;;;;;;;;6.45;59.67;99840.34;5084997;28;19924;-60
2022/11/23 04:43:28;;;;;;;;;;;;;;;6.39;60.00;99840.44;5074585;28;19928;-61
2022/11/23 04:45:53;;;;;;;;;;;;;;;6.35;59.43;99843.97;5075688;28;19925;-61
2022/11/23 04:48:18;;;;;;;;;;;;;;;6.42;59.36;99843.00;5081863;28;19931;-61
2022/11/23 04:50:43;;;;;;;;;;;;;;;6.40;59.11;99842.16;5083656;28;20502;-62
2022/11/23 04:53:09;;;;;;;;;;;;;;;6.35;59.51;99843.97;5076287;28;19983;-60
2022/11/23 04:55:34;;;;;;;;;;;;;;;6.33;59.22;99845.72;5078434;28;19929;-62
2022/11/23 04:57:59;;;;;;;;;;;;;;;6.41;59.08;99844.75;5077390;28;19920;-61
2022/11/23 05:00:25;;;;;;;;;;;;;;;6.44;59.06;99843.84;5080197;28;20375;-59
2022/11/23 05:02:50;;;;;;;;;;;;;;;6.40;59.31;99848.25;5078485;28;20379;-61
2022/11/23 05:05:15;;;;;;;;;;;;;;;6.43;58.98;99852.56;5080028;28;19932;-60
2022/11/23 05:07:41;;;;;;;;;;;;;;;6.34;59.36;99847.44;5078837;28;20249;-60
2022/11/23 05:10:06;;;;;;;;;;;;;;;6.43;59.16;99841.28;5078063;28;19924;-60
2022/11/23 05:12:31;;;;;;;;;;;;;;;6.44;59.17;99843.00;5079158;28;19955;-60
2022/11/23 05:14:57;;;;;;;;;;;;;;;6.36;59.33;99859.59;5079067;28;20295;-61
2022/11/23 05:17:22;;;;;;;;;;;;;;;6.38;59.29;99846.53;5076504;28;19955;-61
2022/11/23 05:19:48;;;;;;;;;;;;;;;6.40;59.33;99852.59;5078458;28;19970;-61
2022/11/23 05:22:14;;;;;;;;;;;;;;;6.43;59.17;99847.34;5079858;28;19956;-60
2022/11/23 05:24:39;;;;;;;;;;;;;;;6.55;58.98;99848.94;5078610;28;20388;-60
2022/11/23 05:27:04;;;;;;;;;;;;;;;6.56;58.86;99848.03;5076666;28;19977;-61
2022/11/23 05:29:29;;;;;;;;;;;;;;;6.51;58.84;99850.72;5078910;28;19947;-62
2022/11/23 05:31:55;;;;;;;;;;;;;;;6.49;58.94;99849.84;5073610;28;19931;-61
2022/11/23 05:34:20;;;;;;;;;;;;;;;6.51;59.05;99844.63;5075575;28;19931;-60
2022/11/23 05:36:45;;;;;;;;;;;;;;;6.54;59.03;99850.69;5075600;28;20295;-61
2022/11/23 05:39:10;;;;;;;;;;;;;;;6.41;59.22;99846.50;5076831;28;19973;-60
2022/11/23 05:41:35;;;;;;;;;;;;;;;6.50;58.95;99848.97;5073225;28;19981;-61
2022/11/23 05:44:01;;;;;;;;;;;;;;;6.57;58.71;99840.16;5073145;28;19936;-61
2022/11/23 05:46:26;;;;;;;;;;;;;;;6.56;58.77;99840.22;5075275;28;20264;-60
2022/11/23 05:48:51;;;;;;;;;;;;;;;6.55;58.80;99849.78;5072534;28;19946;-61
2022/11/23 05:51:16;;;;;;;;;;;;;;;6.54;58.92;99845.47;5070489;28;19939;-60
2022/11/23 05:53:42;;;;;;;;;;;;;;;6.58;58.70;99841.03;5080011;28;19931;-60
2022/11/23 05:56:07;;;;;;;;;;;;;;;6.53;58.80;99840.25;5074641;28;20342;-59
2022/11/23 05:58:32;;;;;;;;;;;;;;;6.43;58.85;99842.13;5076104;28;19917;-60
2022/11/23 06:00:58;;;;;;;;;;;;;;;6.52;58.82;99836.78;5072787;28;19924;-60
2022/11/23 06:03:24;;;;;;;;;;;;;;;6.53;58.90;99848.06;5078226;28;20391;-60
2022/11/23 06:05:49;;;;;;;;;;;;;;;6.52;59.08;99836.78;5077345;28;19956;-60
2022/11/23 06:08:14;;;;;;;;;;;;;;;6.56;58.64;99837.59;5077760;28;20360;-59
2022/11/23 06:10:39;;;;;;;;;;;;;;;6.56;58.66;99846.28;5081920;28;19928;-59
2022/11/23 06:13:05;;;;;;;;;;;;;;;6.43;59.01;99847.34;5078809;28;19924;-59
2022/11/23 06:15:30;;;;;;;;;;;;;;;6.41;58.92;99846.50;5081780;28;19925;-60
2022/11/23 06:17:59;;;;;;;;;;;;;;;6.33;58.87;99845.72;5080907;28;20308;-60
2022/11/23 06:20:25;;;;;;;;;;;;;;;6.37;58.94;99847.41;5074123;28;19924;-60
2022/11/23 06:22:51;;;;;;;;;;;;;;;6.42;58.84;99845.59;5077128;28;20269;-61
2022/11/23 06:25:16;;;;;;;;;;;;;;;6.33;58.98;99841.38;5076055;28;20384;-61
2022/11/23 06:27:43;;;;;;;;;;;;;;;6.38;59.02;99854.34;5076530;28;19977;-60
2022/11/23 06:30:09;;;;;;;;;;;;;;;6.36;58.87;99861.34;5081744;28;20326;-61
2022/11/23 06:32:34;;;;;;;;;;;;;;;6.40;58.78;99852.59;5074401;28;19925;-61
2022/11/23 06:34:59;;;;;;;;;;;;;;;6.45;59.21;99856.00;5075116;28;19924;-60
2022/11/23 06:37:24;;;;;;;;;;;;;;;6.41;58.77;99854.31;5072852;28;19925;-60
2022/11/23 06:39:50;;;;;;;;;;;;;;;6.36;59.08;99861.34;5080879;28;19932;-59
2022/11/23 06:42:15;;;;;;;;;;;;;;;6.38;58.74;99863.06;5073141;28;19934;-59
2022/11/23 06:44:40;;;;;;;;;;;;;;;6.43;58.69;99857.78;5074085;28;20409;-59
2022/11/23 06:47:05;;;;;;;;;;;;;;;6.45;58.99;99866.44;5072986;28;19928;-59
2022/11/23 06:49:31;;;;;;;;;;;;;;;6.46;58.63;99865.56;5074376;28;19924;-60
2022/11/23 06:51:56;;;;;;;;;;;;;;;6.52;58.26;99862.88;5073230;28;19929;-60
2022/11/23 06:54:21;;;;;;;;;;;;;;;6.52;58.46;99869.84;5073904;28;19930;-61
2022/11/23 06:56:46;;;;;;;;;;;;;;;6.49;58.55;99872.50;5071679;28;19947;-60
2022/11/23 06:59:12;;;;;;;;;;;;;;;6.38;58.74;99873.50;5070106;28;20019;-59
2022/11/23 07:01:37;;;;;;;;;;;;;;;6.40;58.76;99878.69;5071401;28;19970;-59
2022/11/23 07:04:03;;;;;;;;;;;;;;;6.38;58.62;99880.44;5072493;28;19970;-60
2022/11/23 07:06:28;;;;;;;;;;;;;;;6.51;58.32;99884.66;5073541;28;19921;-59
2022/11/23 07:08:54;;;;;;;;;;;;;;;6.43;58.45;99886.50;5074350;28;19956;-60
2022/11/23 07:11:19;;;;;;;;;;;;;;;6.57;58.25;99886.31;5073462;28;19921;-60
2022/11/23 07:13:45;;;;;;;;;;;;;;;6.58;58.81;99890.63;5074567;28;19982;-59
2022/11/23 07:16:11;;;;;;;;;;;;;;;6.60;58.38;99884.50;5074368;28;19916;-60
2022/11/23 07:18:36;;;;;;;;;;;;;;;6.68;58.17;99888.78;5076439;28;19954;-60
2022/11/23 07:21:01;;;;;;;;;;;;;;;6.64;58.25;99893.19;5075639;28;20015;-62
2022/11/23 07:23:26;;;;;;;;;;;;;;;6.58;58.52;99893.25;5068018;28;19978;-60
2022/11/23 07:25:52;;;;;;;;;;;;;;;6.64;58.09;99888.81;5073396;28;20390;-61
2022/11/23 07:28:17;;;;;;;;;;;;;;;6.65;57.94;99895.75;5073741;28;20352;-61
2022/11/23 07:30:43;;;;;;;;;;;;;;;6.72;57.81;99891.31;5078944;28;19957;-61
2022/11/23 07:33:09;;;;;;;;;;;;;;;6.51;58.35;99897.69;5084676;28;20379;-59
2022/11/23 07:35:35;;;;;;;;;;;;;;;6.40;58.53;99894.34;5089542;28;19920;-60
2022/11/23 07:38:01;;;;;;;;;;;;;;;6.50;58.33;99893.34;5085978;28;19924;-62
2022/11/23 07:40:26;;;;;;;;;;;;;;;6.47;58.38;99888.19;5073373;28;19921;-60
2022/11/23 07:42:52;;;;;;;;;;;;;;;6.50;58.13;99889.88;5090257;28;19935;-61
2022/11/23 07:45:17;;;;;;;;;;;;;;;6.55;58.55;99893.31;5086685;28;19932;-61
2022/11/23 07:47:43;;;;;;;;;;;;;;;6.63;58.83;99897.53;5071311;28;19963;-61
2022/11/23 07:50:09;;;;;;;;;;;;;;;6.65;58.00;99893.13;5074445;28;19977;-61
2022/11/23 07:52:35;;;;;;;;;;;;;;;6.55;58.20;99893.31;5073197;28;20462;-61
2022/11/23 07:55:00;;;;;;;;;;;;;;;6.64;58.01;99896.66;5087933;28;20039;-62
2022/11/23 07:57:26;;;;;;;;;;;;;;;6.73;58.05;99897.41;5075359;28;20027;-62
2022/11/23 07:59:51;;;;;;;;;;;;;;;6.71;57.94;99904.41;5079234;28;20376;-62
2022/11/23 08:02:16;;;;;;;;;;;;;;;6.86;57.84;99909.41;5068418;28;19967;-63
2022/11/23 08:04:42;;;;;;;;;;;;;;;6.69;57.95;99907.03;5077135;28;19931;-61
2022/11/23 08:07:07;;;;;;;;;;;;;;;6.84;58.02;99905.97;5079195;28;19925;-61
2022/11/23 08:09:32;;;;;;;;;;;;;;;6.95;57.67;99900.59;5074168;28;19954;-62
2022/11/23 08:11:57;;;;;;;;;;;;;;;6.94;57.35;99899.69;5083206;28;19924;-63
2022/11/23 08:14:23;;;;;;;;;;;;;;;6.99;57.57;99899.66;5075477;28;19928;-61
2022/11/23 08:16:49;;;;;;;;;;;;;;;7.06;57.32;99903.88;5073920;28;19986;-59
2022/11/23 08:19:15;;;;;;;;;;;;;;;7.10;57.12;99903.84;5083109;28;20394;-61
2022/11/23 08:21:40;;;;;;;;;;;;;;;7.16;57.10;99893.28;5086818;28;19974;-61
2022/11/23 08:24:05;;;;;;;;;;;;;;;7.22;56.92;99894.06;5087485;28;19976;-61
2022/11/23 08:26:31;;;;;;;;;;;;;;;7.30;56.62;99902.66;5071349;28;19966;-63
2022/11/23 08:28:56;;;;;;;;;;;;;;;7.31;56.55;99907.88;5074341;28;19924;-62
2022/11/23 08:31:21;;;;;;;;;;;;;;;7.29;56.60;99909.63;5090851;28;19974;-60
2022/11/23 08:33:47;;;;;;;;;;;;;;;7.27;56.80;99908.81;5074698;28;19928;-60
2022/11/23 08:36:13;;;;;;;;;;;;;;;7.25;56.54;99902.72;5088599;28;19935;-62
2022/11/23 08:38:38;;;;;;;;;;;;;;;7.29;56.34;99904.41;5080968;28;20409;-63
2022/11/23 08:41:04;;;;;;;;;;;;;;;7.30;56.83;99905.25;5079205;28;19929;-61
2022/11/23 08:43:29;;;;;;;;;;;;;;;7.28;56.68;99907.03;5087511;28;20372;-60
2022/11/23 08:45:55;;;;;;;;;;;;;;;7.36;56.85;99907.78;5075532;28;19924;-63
2022/11/23 08:48:20;;;;;;;;;;;;;;;7.40;56.64;99909.47;5078562;28;19921;-60
2022/11/23 08:50:46;;;;;;;;;;;;;;;7.44;56.30;99905.06;5091048;28;20019;-61
2022/11/23 08:53:11;;;;;;;;;;;;;;;7.38;56.60;99911.22;5090052;28;20107;-60
2022/11/23 08:55:36;;;;;;;;;;;;;;;7.40;56.64;99905.09;5076975;28;19983;-61
2022/11/23 08:58:02;;;;;;;;;;;;;;;7.41;56.48;99908.56;5078488;28;20290;-61
2022/11/23 09:00:28;;;;;;;;;;;;;;;7.37;57.29;99909.50;5083170;28;20366;-60
2022/11/23 09:02:53;;;;;;;;;;;;;;;7.30;56.72;99910.47;5092029;28;19927;-61
2022/11/23 09:05:19;;;;;;;;;;;;;;;7.33;56.59;99907.84;5090836;28;19927;-60
2022/11/23 09:07:44;;;;;;;;;;;;;;;7.31;56.57;99909.63;5086753;28;20375;-62
2022/11/23 09:10:09;;;;;;;;;;;;;;;7.32;56.72;99908.72;5078404;28;20387;-60
2022/11/23 09:12:35;;;;;;;;;;;;;;;7.38;56.98;99908.59;5062309;28;20715;-63
2022/11/23 09:15:00;;;;;;;;;;;;;;;7.44;56.85;99902.44;5060609;28;20505;-63
2022/11/23 09:17:25;;;;;;;;;;;;;;;7.46;56.34;99901.53;5059089;28;19933;-62
2022/11/23 09:19:50;;;;;;;;;;;;;;;7.47;56.54;99912.84;5068326;28;19929;-61
2022/11/23 09:22:16;;;;;;;;;;;;;;;7.47;56.44;99912.84;5071144;28;19959;-63
2022/11/23 09:24:41;;;;;;;;;;;;;;;7.41;56.56;99903.34;5064463;28;20023;-61
2022/11/23 09:27:07;;;;;;;;;;;;;;;7.39;56.45;99907.75;5069007;28;20403;-63
2022/11/23 09:29:32;;;;;;;;;;;;;;;7.32;56.97;99903.50;5076295;28;19920;-61
2022/11/23 09:31:58;;;;;;;;;;;;;;;7.38;56.69;99908.59;5086037;28;19983;-61
2022/11/23 09:34:23;;;;;;;;;;;;;;;7.32;56.39;99913.94;5088192;28;20387;-61
2022/11/23 09:36:48;;;;;;;;;;;;;;;7.48;56.17;99909.34;5076842;28;20011;-62
2022/11/23 09:39:13;;;;;;;;;;;;;;;7.51;56.10;99910.16;5084219;28;19982;-61
2022/11/23 09:41:39;;;;;;;;;;;;;;;7.60;56.15;99906.53;5090800;28;19959;-61
2022/11/23 09:44:10;;;;;;;;;;;;;;;7.47;56.22;99913.72;5089695;28;20368;-63
2022/11/23 09:46:35;;;;;;;;;;;;;;;7.50;55.92;99916.28;5091708;28;20302;-61
2022/11/23 09:49:36;;;;;;;;;;;;;;;7.51;56.07;99907.53;5090172;28;20071;-61
2022/11/23 09:52:01;;;;;;;;;;;;;;;7.56;55.92;99910.06;5036285;28;19921;-62
2022/11/23 09:54:31;;;;;;;;;;;;;;;7.60;55.69;99906.53;5071900;28;19935;-61
2022/11/23 09:56:57;;;;;;;;;;;;;;;7.72;55.59;99903.69;5073738;28;19927;-61
2022/11/23 09:59:25;;;;;;;;;;;;;;;7.70;55.51;99912.44;5077782;28;19920;-62
2022/11/23 10:01:50;;;;;;;;;;;;;;;7.61;55.67;99903.88;5074978;28;19921;-61
2022/11/23 10:04:17;;;;;;;;;;;;;;;7.67;55.54;99909.91;5078606;28;20022;-63
2022/11/23 10:06:43;;;;;;;;;;;;;;;7.73;55.69;99896.69;5073872;28;19916;-62
2022/11/23 10:09:23;;;;;;;;;;;;;;;7.73;55.96;99900.19;5073916;28;19923;-61
2022/11/23 10:12:07;;;;;;;;;;;;;;;7.88;55.03;99901.66;5107015;28;20008;-60
2022/11/23 10:14:38;;;;;;;;;;;;;;;7.87;54.60;99897.34;5083546;28;19922;-62
2022/11/23 10:17:22;;;;;;;;;;;;;;;7.94;54.93;99893.72;5075350;28;19927;-61
2022/11/23 10:20:06;;;;;;;;;;;;;;;7.83;54.78;99893.06;5076200;28;19924;-60
2022/11/23 10:22:54;;;;;;;;;;;;;;;7.86;54.49;99886.00;5067816;28;19928;-62
2022/11/23 10:25:21;;;;;;;;;;;;;;;7.77;55.02;99896.63;5074367;28;19917;-61
2022/11/23 10:27:47;;;;;;;;;;;;;;;7.89;55.21;99890.31;5086549;28;19921;-60
2022/11/23 10:30:14;;;;;;;;;;;;;;;7.94;55.07;99898.06;5081692;28;20050;-60
2022/11/23 10:33:05;;;;;;;;;;;;;;;7.93;54.99;99893.72;5079779;28;20299;-63
2022/11/23 10:35:32;;;;;;;;;;;;;;;7.95;55.11;99890.19;5073724;28;20397;-61
2022/11/23 10:38:17;;;;;;;;;;;;;;;7.93;55.03;99888.50;5091441;28;19919;-61
2022/11/23 10:40:47;;;;;;;;;;;;;;;7.92;55.42;99894.63;5053951;28;19971;-61
2022/11/23 10:43:19;;;;;;;;;;;;;;;7.96;55.05;99891.91;5052649;28;20016;-61
2022/11/23 10:45:45;;;;;;;;;;;;;;;7.92;54.98;99892.00;5053179;28;19924;-61
2022/11/23 10:48:10;;;;;;;;;;;;;;;7.82;55.21;99889.56;5066966;28;19924;-60
2022/11/23 10:50:39;;;;;;;;;;;;;;;7.93;55.35;99885.88;5053696;28;19925;-60
2022/11/23 10:53:04;;;;;;;;;;;;;;;8.00;55.13;99895.34;5054273;28;19928;-61
2022/11/23 10:55:30;;;;;;;;;;;;;;;8.04;55.01;99884.78;5054995;28;19917;-61
2022/11/23 10:57:56;;;;;;;;;;;;;;;8.07;55.68;99884.75;5054788;28;20016;-60
2022/11/23 11:00:22;;;;;;;;;;;;;;;8.00;55.17;99882.25;5053252;28;19967;-60
2022/11/23 11:02:49;;;;;;;;;;;;;;;8.02;55.05;99881.34;5053574;28;19925;-60
2022/11/23 11:05:20;;;;;;;;;;;;;;;8.06;54.79;99883.03;5053140;28;19917;-61
2022/11/23 11:07:46;;;;;;;;;;;;;;;8.06;54.83;99876.94;5054840;28;19916;-60
2022/11/23 11:10:31;;;;;;;;;;;;;;;7.87;55.12;99879.88;5054584;28;20020;-61
2022/11/23 11:12:57;;;;;;;;;;;;;;;7.89;55.23;99872.00;5054635;28;19917;-60
2022/11/23 11:15:22;;;;;;;;;;;;;;;7.95;55.42;99876.25;5054663;28;19932;-60
2022/11/23 11:17:54;;;;;;;;;;;;;;;7.88;55.38;99870.28;5054633;28;20016;-61
2022/11/23 11:20:33;;;;;;;;;;;;;;;7.89;55.55;99864.16;5054405;28;19966;-61
2022/11/23 11:23:03;;;;;;;;;;;;;;;7.86;55.39;99867.69;5054381;28;19966;-61
2022/11/23 11:25:34;;;;;;;;;;;;;;;7.85;55.57;99865.09;5054667;28;19924;-63
2022/11/23 11:28:01;;;;;;;;;;;;;;;7.86;55.75;99857.25;5068280;28;19956;-60
2022/11/23 11:30:33;;;;;;;;;;;;;;;7.87;55.54;99858.09;5074214;28;20003;-61
2022/11/23 11:32:58;;;;;;;;;;;;;;;7.89;55.33;99853.69;5073045;28;20371;-61
2022/11/23 11:35:41;;;;;;;;;;;;;;;7.75;55.42;99855.72;5070919;28;20011;-62
2022/11/23 11:38:21;;;;;;;;;;;;;;;7.70;55.61;99860.13;5074425;28;19962;-61
2022/11/23 11:40:48;;;;;;;;;;;;;;;7.77;55.58;99856.53;5074062;28;19931;-60
2022/11/23 11:43:27;;;;;;;;;;;;;;;7.67;55.71;99855.00;5074346;28;19924;-61
2022/11/23 11:45:53;;;;;;;;;;;;;;;7.70;55.87;99865.38;5054027;28;19917;-61
2022/11/23 11:48:26;;;;;;;;;;;;;;;7.57;55.97;99855.13;5054148;28;20385;-61
2022/11/23 11:50:51;;;;;;;;;;;;;;;7.59;56.64;99860.34;5078336;28;19962;-61
2022/11/23 11:53:28;;;;;;;;;;;;;;;7.62;56.22;99861.16;5080301;28;19975;-61
2022/11/23 11:55:53;;;;;;;;;;;;;;;7.68;56.01;99859.31;5090733;28;19924;-61
2022/11/23 11:58:20;;;;;;;;;;;;;;;7.73;55.65;99863.56;5090030;28;19920;-62
2022/11/23 12:00:47;;;;;;;;;;;;;;;7.76;55.41;99858.28;5083846;28;19921;-62
2022/11/23 12:03:21;;;;;;;;;;;;;;;7.71;55.47;99859.28;5087141;28;19939;-60
2022/11/23 12:05:50;;;;;;;;;;;;;;;7.56;55.78;99852.56;5087396;28;19928;-62
2022/11/23 12:08:34;;;;;;;;;;;;;;;7.53;55.91;99861.31;5075234;28;19925;-61
2022/11/23 12:11:04;;;;;;;;;;;;;;;7.54;56.13;99856.94;5074645;28;19927;-61
2022/11/23 12:13:34;;;;;;;;;;;;;;;7.49;56.02;99854.41;5076050;28;19921;-61
2022/11/23 12:16:08;;;;;;;;;;;;;;;7.63;56.50;99857.66;5069587;28;20003;-61
2022/11/23 12:18:54;;;;;;;;;;;;;;;7.64;55.59;99864.59;5076658;28;20307;-62
2022/11/23 12:21:38;;;;;;;;;;;;;;;7.57;55.77;99852.50;5066200;28;20004;-61
2022/11/23 12:24:06;;;;;;;;;;;;;;;7.51;55.92;99860.50;5072962;28;20261;-62
2022/11/23 12:26:36;;;;;;;;;;;;;;;7.59;55.83;99865.59;5083057;28;19920;-62
2022/11/23 12:29:20;;;;;;;;;;;;;;;7.55;55.90;99859.53;5090523;28;19920;-61
2022/11/23 12:31:47;;;;;;;;;;;;;;;7.51;56.42;99863.09;5085194;28;19928;-61
2022/11/23 12:34:13;;;;;;;;;;;;;;;7.62;56.60;99866.41;5075991;28;20007;-60
2022/11/23 12:36:45;;;;;;;;;;;;;;;7.60;56.35;99857.69;5075524;28;20017;-61
2022/11/23 12:39:22;;;;;;;;;;;;;;;7.70;55.73;99854.91;5080327;28;19923;-61
2022/11/23 12:41:47;;;;;;;;;;;;;;;7.72;55.60;99867.06;5094053;28;19990;-60
2022/11/23 12:44:13;;;;;;;;;;;;;;;7.64;55.60;99864.59;5073366;28;20386;-63
2022/11/23 12:46:53;;;;;;;;;;;;;;;7.52;56.10;99870.03;5076749;28;19978;-61
2022/11/23 12:49:34;;;;;;;;;;;;;;;7.52;56.08;99867.44;5073279;28;20379;-60
2022/11/23 12:52:14;;;;;;;;;;;;;;;7.51;56.32;99868.31;5073129;28;20300;-61
2022/11/23 12:54:49;;;;;;;;;;;;;;;7.53;56.42;99863.91;5071880;28;19916;-61
2022/11/23 12:57:24;;;;;;;;;;;;;;;7.53;56.01;99866.53;5084492;28;20003;-60